Time;durP1;ratioP1;P1;durP2;ratioP2;P2;SDS_P1;SDS_P2;PMS_P1;PMS_P2;Temp;Humidity;BMP_temperature;BMP_pressure;BME280_temperature;BME280_humidity;BME280_pressure;Samples;Min_cycle;Max_cycle;Signal;HPM_P1;HPM_P2
2021/12/27 00:01:20;;;;;;;;;;;;;;;17.18;59.38;100764.19;6098911;23;1079;-39
2021/12/27 00:03:51;;;;;;;;;;;;;;;17.64;58.36;100752.41;6098160;23;1901;-39
2021/12/27 00:06:21;;;;;;;;;;;;;;;17.70;58.17;100751.06;6098504;23;1099;-40
2021/12/27 00:08:51;;;;;;;;;;;;;;;17.76;58.09;100755.06;6097926;23;1079;-39
2021/12/27 00:11:18;;;;;;;;;;;;;;;17.83;57.99;100759.81;6098089;23;1103;-39
2021/12/27 00:13:44;;;;;;;;;;;;;;;17.82;58.00;100743.84;6098583;23;1086;-40
2021/12/27 00:16:11;;;;;;;;;;;;;;;17.66;58.35;100738.94;6098048;23;1068;-40
2021/12/27 00:18:41;;;;;;;;;;;;;;;17.34;58.96;100745.09;6098559;23;1082;-39
2021/12/27 00:21:09;;;;;;;;;;;;;;;17.19;59.56;100765.91;6097907;23;1052;-39
2021/12/27 00:23:36;;;;;;;;;;;;;;;17.30;59.44;100773.06;6051026;23;1497;-39
2021/12/27 00:26:04;;;;;;;;;;;;;;;17.52;58.90;100774.81;6097809;23;1944;-40
2021/12/27 00:28:34;;;;;;;;;;;;;;;17.53;58.90;100775.66;6097549;23;1175;-39
2021/12/27 00:31:06;;;;;;;;;;;;;;;17.52;58.84;100773.97;6098082;23;1107;-40
2021/12/27 00:33:34;;;;;;;;;;;;;;;17.38;59.23;100767.09;6098392;23;1074;-39
2021/12/27 00:36:07;;;;;;;;;;;;;;;17.46;59.04;100780.69;6098333;23;995;-39
2021/12/27 00:38:36;;;;;;;;;;;;;;;17.39;59.08;100772.31;6097972;23;1075;-39
2021/12/27 00:41:14;;;;;;;;;;;;;;;17.37;59.24;100770.72;6098292;23;1070;-39
2021/12/27 00:43:42;;;;;;;;;;;;;;;17.30;59.52;100749.00;6098352;23;1081;-40
2021/12/27 00:46:09;;;;;;;;;;;;;;;17.29;59.45;100744.63;6098058;23;1940;-39
2021/12/27 00:48:39;;;;;;;;;;;;;;;17.35;59.35;100744.13;6097855;23;1159;-39
2021/12/27 00:51:18;;;;;;;;;;;;;;;17.32;59.23;100756.91;6098232;23;1061;-39
2021/12/27 00:53:53;;;;;;;;;;;;;;;17.30;59.32;100757.00;6098166;23;1094;-39
2021/12/27 00:56:19;;;;;;;;;;;;;;;17.31;59.38;100772.09;6098184;23;1019;-40
2021/12/27 00:58:49;;;;;;;;;;;;;;;17.33;59.37;100764.81;6097987;23;1123;-39
2021/12/27 01:01:17;;;;;;;;;;;;;;;17.28;59.41;100767.81;6098126;23;1086;-40
2021/12/27 01:03:47;;;;;;;;;;;;;;;17.32;59.06;100771.09;6097420;23;1463;-39
2021/12/27 01:06:19;;;;;;;;;;;;;;;17.28;59.25;100753.63;6097918;23;1893;-39
2021/12/27 01:08:48;;;;;;;;;;;;;;;17.31;59.24;100753.38;6097668;23;1095;-39
2021/12/27 01:11:25;;;;;;;;;;;;;;;17.20;59.43;100750.72;6097520;23;1107;-39
2021/12/27 01:14:03;;;;;;;;;;;;;;;16.84;60.07;100742.84;6097717;23;1311;-39
2021/12/27 01:16:34;;;;;;;;;;;;;;;16.60;61.45;100748.28;6097763;23;988;-39
2021/12/27 01:19:05;;;;;;;;;;;;;;;16.40;61.73;100739.16;6097379;23;1071;-39
2021/12/27 01:21:37;;;;;;;;;;;;;;;16.40;61.30;100755.19;6097934;23;1042;-40
2021/12/27 01:24:04;;;;;;;;;;;;;;;16.49;60.93;100753.59;6098009;23;988;-39
2021/12/27 01:26:31;;;;;;;;;;;;;;;16.77;61.03;100763.00;6097909;23;1066;-39
2021/12/27 01:29:00;;;;;;;;;;;;;;;17.20;59.76;100764.09;6096946;23;1087;-39
2021/12/27 01:31:29;;;;;;;;;;;;;;;17.34;59.02;100766.47;6097811;23;1043;-40
2021/12/27 01:33:58;;;;;;;;;;;;;;;17.83;58.06;100783.88;6097684;23;1209;-39
2021/12/27 01:36:31;;;;;;;;;;;;;;;17.95;57.47;100762.44;6097763;23;1078;-39
2021/12/27 01:39:04;;;;;;;;;;;;;;;17.97;57.77;100745.28;6097816;23;1019;-39
2021/12/27 01:41:39;;;;;;;;;;;;;;;17.78;58.38;100763.81;6097634;23;1007;-39
2021/12/27 01:44:08;;;;;;;;;;;;;;;17.34;59.15;100755.78;6097247;23;1099;-39
2021/12/27 01:46:36;;;;;;;;;;;;;;;17.22;59.69;100756.78;6097102;23;1893;-39
2021/12/27 01:49:05;;;;;;;;;;;;;;;17.55;58.97;100752.31;6098000;23;1070;-39
2021/12/27 01:51:35;;;;;;;;;;;;;;;17.60;58.69;100744.78;6097325;23;1087;-39
2021/12/27 01:54:08;;;;;;;;;;;;;;;17.52;58.87;100752.59;6097195;23;1107;-39
2021/12/27 01:56:35;;;;;;;;;;;;;;;17.53;58.91;100743.59;6097401;23;1005;-39
2021/12/27 01:59:02;;;;;;;;;;;;;;;17.49;58.73;100765.25;6097112;23;1010;-39
2021/12/27 02:01:29;;;;;;;;;;;;;;;17.47;59.12;100755.66;6097641;23;1074;-40
2021/12/27 02:03:57;;;;;;;;;;;;;;;17.49;58.97;100769.75;6096349;23;1406;-40
2021/12/27 02:06:25;;;;;;;;;;;;;;;17.49;58.85;100765.25;6097479;23;1937;-40
2021/12/27 02:08:55;;;;;;;;;;;;;;;17.46;58.94;100786.88;6097073;23;1043;-40
2021/12/27 02:11:33;;;;;;;;;;;;;;;17.43;59.23;100770.25;6097270;23;1019;-39
2021/12/27 02:14:02;;;;;;;;;;;;;;;17.40;59.37;100776.66;6097453;23;995;-39
2021/12/27 02:16:29;;;;;;;;;;;;;;;17.43;58.96;100772.91;6097182;23;1115;-39
2021/12/27 02:18:56;;;;;;;;;;;;;;;17.44;58.89;100799.50;6097713;23;1067;-39
2021/12/27 02:21:28;;;;;;;;;;;;;;;17.41;59.27;100788.25;6096050;23;1012;-40
2021/12/27 02:24:01;;;;;;;;;;;;;;;17.44;59.07;100778.13;6097348;23;1082;-39
2021/12/27 02:26:30;;;;;;;;;;;;;;;17.46;59.08;100776.16;6097215;23;1897;-39
2021/12/27 02:29:00;;;;;;;;;;;;;;;17.41;59.02;100766.84;6097388;23;1078;-39
2021/12/27 02:31:28;;;;;;;;;;;;;;;17.44;58.98;100783.47;6097054;23;1047;-39
2021/12/27 02:33:57;;;;;;;;;;;;;;;17.46;58.97;100772.66;6097292;23;1451;-40
2021/12/27 02:36:27;;;;;;;;;;;;;;;17.43;59.09;100781.78;6097268;23;1094;-39
2021/12/27 02:38:56;;;;;;;;;;;;;;;17.26;59.35;100767.09;6097358;23;1076;-39
2021/12/27 02:41:25;;;;;;;;;;;;;;;17.30;59.37;100765.88;6097363;23;976;-39
2021/12/27 02:43:51;;;;;;;;;;;;;;;17.32;59.24;100779.13;6097291;23;1008;-40
2021/12/27 02:48:59;;;;;;;;;;;;;;;16.98;60.60;100763.13;6096744;23;1833;-39
2021/12/27 02:51:32;;;;;;;;;;;;;;;16.75;61.13;100754.25;6097254;23;1039;-39
2021/12/27 02:53:59;;;;;;;;;;;;;;;16.57;61.68;100761.00;6096826;23;1253;-40
2021/12/27 02:56:26;;;;;;;;;;;;;;;16.48;62.02;100762.59;6097334;23;1011;-40
2021/12/27 02:58:55;;;;;;;;;;;;;;;16.51;60.79;100767.69;6097258;23;1090;-39
2021/12/27 03:01:30;;;;;;;;;;;;;;;16.93;60.47;100762.66;6109967;23;3679;-83
2021/12/27 03:03:57;;;;;;;;;;;;;;;17.17;59.60;100754.50;6159627;23;1022;-83
2021/12/27 03:06:23;;;;;;;;;;;;;;;17.46;58.90;100754.78;6159977;23;1876;-82
2021/12/27 03:08:52;;;;;;;;;;;;;;;17.48;58.87;100755.50;6160019;23;1010;-83
2021/12/27 03:11:19;;;;;;;;;;;;;;;17.77;58.08;100762.97;6159623;23;1019;-82
2021/12/27 03:13:46;;;;;;;;;;;;;;;17.47;58.83;100764.50;6160396;23;1037;-83
2021/12/27 03:16:13;;;;;;;;;;;;;;;17.26;59.52;100768.94;6162183;23;1104;-82
2021/12/27 03:18:43;;;;;;;;;;;;;;;17.18;59.56;100772.22;6159562;23;1109;-85
2021/12/27 03:21:10;;;;;;;;;;;;;;;17.49;59.02;100765.25;6161111;23;1066;-87
2021/12/27 03:23:38;;;;;;;;;;;;;;;17.58;58.82;100781.50;6160650;23;1639;-83
2021/12/27 03:26:06;;;;;;;;;;;;;;;17.52;58.93;100768.63;6159809;23;1896;-85
2021/12/27 03:28:34;;;;;;;;;;;;;;;17.42;58.98;100769.38;6160185;23;1523;-83
2021/12/27 03:31:02;;;;;;;;;;;;;;;17.07;60.00;100756.22;6160552;23;978;-83
2021/12/27 03:33:29;;;;;;;;;;;;;;;16.78;61.16;100751.31;6160075;23;967;-84
2021/12/27 03:36:01;;;;;;;;;;;;;;;16.56;61.33;100744.16;6158350;23;1521;-86
2021/12/27 03:38:29;;;;;;;;;;;;;;;16.52;61.78;100764.06;6159717;23;1634;-86
2021/12/27 03:40:56;;;;;;;;;;;;;;;16.34;61.33;100760.16;6160217;23;987;-86
2021/12/27 03:43:23;;;;;;;;;;;;;;;16.34;61.29;100754.81;6160311;23;1002;-82
2021/12/27 03:45:50;;;;;;;;;;;;;;;16.30;61.69;100759.53;6160448;23;1902;-86
2021/12/27 03:48:16;;;;;;;;;;;;;;;16.29;61.39;100763.16;6163473;23;1003;-86
2021/12/27 03:50:43;;;;;;;;;;;;;;;16.25;61.30;100749.22;6161760;23;1009;-83
2021/12/27 03:53:10;;;;;;;;;;;;;;;16.18;61.48;100761.31;6161602;23;1050;-83
2021/12/27 03:55:36;;;;;;;;;;;;;;;16.15;61.66;100755.34;6160984;23;970;-84
2021/12/27 03:58:08;;;;;;;;;;;;;;;16.10;61.59;100726.38;6162614;23;1038;-82
2021/12/27 04:00:49;;;;;;;;;;;;;;;16.07;62.38;100731.94;6160363;23;1045;-86
2021/12/27 04:03:16;;;;;;;;;;;;;;;16.02;62.10;100747.47;6160958;23;1332;-87
2021/12/27 04:05:43;;;;;;;;;;;;;;;16.00;61.87;100744.06;6161436;23;1936;-83
2021/12/27 04:08:10;;;;;;;;;;;;;;;15.99;63.16;100739.66;6161876;23;1055;-82
2021/12/27 04:10:38;;;;;;;;;;;;;;;15.97;62.34;100762.94;6160997;23;1038;-86
2021/12/27 04:13:05;;;;;;;;;;;;;;;15.91;62.66;100745.59;6161810;23;1037;-83
2021/12/27 04:15:32;;;;;;;;;;;;;;;15.87;62.74;100738.78;6162006;23;978;-86
2021/12/27 04:18:01;;;;;;;;;;;;;;;15.84;62.07;100726.53;6171872;23;995;-84
2021/12/27 04:20:27;;;;;;;;;;;;;;;15.84;62.80;100739.88;6170576;23;1505;-86
2021/12/27 04:22:54;;;;;;;;;;;;;;;15.80;62.49;100754.41;6160713;23;966;-86
2021/12/27 04:25:21;;;;;;;;;;;;;;;15.77;63.16;100770.63;6161574;23;1939;-87
2021/12/27 04:27:48;;;;;;;;;;;;;;;15.79;63.09;100775.84;6161566;23;1492;-83
2021/12/27 04:30:15;;;;;;;;;;;;;;;15.74;63.54;100769.97;6161114;23;1066;-83
2021/12/27 04:32:42;;;;;;;;;;;;;;;15.69;62.61;100775.63;6162105;23;1002;-87
2021/12/27 04:35:10;;;;;;;;;;;;;;;15.68;61.81;100800.59;6161687;23;990;-86
2021/12/27 04:37:37;;;;;;;;;;;;;;;15.66;62.12;100790.06;6160962;23;1006;-83
2021/12/27 04:40:05;;;;;;;;;;;;;;;15.64;62.58;100788.47;6163996;23;959;-86
2021/12/27 04:42:31;;;;;;;;;;;;;;;15.62;62.65;100787.72;6160869;23;1595;-86
2021/12/27 04:44:58;;;;;;;;;;;;;;;15.61;63.12;100789.53;6160863;23;1462;-83
2021/12/27 04:47:25;;;;;;;;;;;;;;;15.57;63.01;100777.38;6162816;23;1893;-86
2021/12/27 04:49:52;;;;;;;;;;;;;;;15.57;63.61;100776.53;6161379;23;1046;-86
2021/12/27 04:52:20;;;;;;;;;;;;;;;15.59;62.13;100767.47;6161118;23;1014;-83
2021/12/27 04:54:47;;;;;;;;;;;;;;;15.60;61.79;100757.69;6160468;23;1070;-83
2021/12/27 04:57:15;;;;;;;;;;;;;;;15.55;62.76;100766.00;6160761;23;982;-86
2021/12/27 04:59:41;;;;;;;;;;;;;;;15.58;62.58;100775.56;6160631;23;1651;-83
2021/12/27 05:02:08;;;;;;;;;;;;;;;15.57;62.14;100761.41;6159852;23;1390;-83
2021/12/27 05:04:35;;;;;;;;;;;;;;;15.55;62.37;100775.81;6160884;23;1466;-86
2021/12/27 05:07:01;;;;;;;;;;;;;;;15.51;61.72;100786.69;6160667;23;1897;-83
2021/12/27 05:09:29;;;;;;;;;;;;;;;15.52;63.15;100788.41;6160861;23;1015;-86
2021/12/27 05:11:56;;;;;;;;;;;;;;;15.51;63.20;100786.69;6162103;23;1108;-87
2021/12/27 05:14:22;;;;;;;;;;;;;;;15.48;62.21;100772.75;6160522;23;1457;-86
2021/12/27 05:16:49;;;;;;;;;;;;;;;15.42;61.57;100783.84;6160481;23;987;-86
2021/12/27 05:19:16;;;;;;;;;;;;;;;15.42;62.28;100790.03;6161092;23;978;-86
2021/12/27 05:21:42;;;;;;;;;;;;;;;15.40;62.94;100802.63;6160329;23;1025;-83
2021/12/27 05:24:09;;;;;;;;;;;;;;;15.39;61.82;100794.72;6160727;23;986;-82
2021/12/27 05:26:36;;;;;;;;;;;;;;;15.39;62.19;100810.72;6160987;23;1889;-86
2021/12/27 05:29:03;;;;;;;;;;;;;;;15.35;62.43;100802.09;6159484;23;1437;-86
2021/12/27 05:31:29;;;;;;;;;;;;;;;15.37;62.09;100792.16;6160954;23;1109;-83
2021/12/27 05:33:56;;;;;;;;;;;;;;;15.37;63.54;100800.16;6160575;23;1584;-83
2021/12/27 05:36:22;;;;;;;;;;;;;;;15.37;62.03;100796.66;6160836;23;1010;-86
2021/12/27 05:38:49;;;;;;;;;;;;;;;15.38;61.85;100793.00;6160273;23;978;-83
2021/12/27 05:41:15;;;;;;;;;;;;;;;15.36;62.21;100790.47;6161202;23;1011;-86
2021/12/27 05:43:44;;;;;;;;;;;;;;;15.35;62.27;100791.44;6160256;23;1587;-86
2021/12/27 05:46:10;;;;;;;;;;;;;;;15.33;62.35;100793.34;6160948;23;1896;-82
2021/12/27 05:48:37;;;;;;;;;;;;;;;15.28;63.05;100776.88;6161564;23;1002;-83
2021/12/27 05:51:03;;;;;;;;;;;;;;;15.34;62.21;100797.75;6160624;23;1042;-81
2021/12/27 05:53:30;;;;;;;;;;;;;;;15.30;62.08;100809.59;6160530;23;1042;-83
2021/12/27 05:56:02;;;;;;;;;;;;;;;15.28;62.07;100798.19;6160754;23;1082;-87
2021/12/27 05:58:28;;;;;;;;;;;;;;;15.24;62.76;100807.31;6159927;23;966;-85
2021/12/27 06:00:56;;;;;;;;;;;;;;;15.21;62.44;100802.22;6160097;23;1084;-86
2021/12/27 06:03:23;;;;;;;;;;;;;;;15.21;62.53;100812.88;6159906;23;1577;-83
2021/12/27 06:05:50;;;;;;;;;;;;;;;15.22;62.08;100819.91;6158931;23;1893;-86
2021/12/27 06:08:17;;;;;;;;;;;;;;;15.18;62.20;100808.66;6160955;23;1026;-83
2021/12/27 06:10:43;;;;;;;;;;;;;;;15.25;62.92;100809.03;6161267;23;947;-82
2021/12/27 06:13:10;;;;;;;;;;;;;;;15.22;62.20;100809.25;6160913;23;1110;-82
2021/12/27 06:15:36;;;;;;;;;;;;;;;15.21;63.07;100810.22;6170691;23;1002;-84
2021/12/27 06:18:04;;;;;;;;;;;;;;;15.19;63.45;100807.66;6172832;23;902;-83
2021/12/27 06:20:31;;;;;;;;;;;;;;;15.21;61.99;100792.44;6160895;23;1019;-83
2021/12/27 06:22:58;;;;;;;;;;;;;;;15.22;61.93;100793.28;6159637;23;1015;-88
2021/12/27 06:25:25;;;;;;;;;;;;;;;15.18;62.11;100792.66;6160333;23;978;-83
2021/12/27 06:27:51;;;;;;;;;;;;;;;15.21;61.77;100788.91;6159803;23;1893;-84
2021/12/27 06:30:20;;;;;;;;;;;;;;;15.23;61.92;100801.16;6160627;23;1030;-86
2021/12/27 06:32:46;;;;;;;;;;;;;;;15.16;62.29;100799.03;6160716;23;1021;-86
2021/12/27 06:35:21;;;;;;;;;;;;;;;15.13;62.52;100799.28;6160880;23;923;-86
2021/12/27 06:37:49;;;;;;;;;;;;;;;15.11;63.30;100808.22;6160473;23;1081;-83
2021/12/27 06:40:17;;;;;;;;;;;;;;;15.08;62.62;100789.81;6160071;23;1040;-82
2021/12/27 06:42:44;;;;;;;;;;;;;;;15.07;62.23;100777.44;6160320;23;1074;-83
2021/12/27 06:45:11;;;;;;;;;;;;;;;15.09;62.26;100787.97;6161418;23;1054;-86
2021/12/27 06:47:37;;;;;;;;;;;;;;;15.08;62.28;100780.94;6159969;23;1931;-88
2021/12/27 06:50:04;;;;;;;;;;;;;;;15.07;63.60;100780.09;6159738;23;1010;-83
2021/12/27 06:52:32;;;;;;;;;;;;;;;15.08;63.29;100783.59;6160072;23;1018;-88
2021/12/27 06:54:59;;;;;;;;;;;;;;;15.09;62.02;100787.97;6160874;23;1074;-83
2021/12/27 06:57:25;;;;;;;;;;;;;;;15.08;62.57;100775.59;6159728;23;1085;-82
2021/12/27 06:59:52;;;;;;;;;;;;;;;15.04;62.59;100777.66;6159841;23;1018;-83
2021/12/27 07:02:18;;;;;;;;;;;;;;;15.05;62.48;100787.34;6158697;23;1363;-82
2021/12/27 07:04:47;;;;;;;;;;;;;;;15.06;62.36;100786.41;6159782;23;1002;-85
2021/12/27 07:07:13;;;;;;;;;;;;;;;15.09;61.77;100770.19;6160452;23;1936;-86
2021/12/27 07:09:41;;;;;;;;;;;;;;;15.09;62.10;100777.31;6159191;23;1596;-83
2021/12/27 07:12:08;;;;;;;;;;;;;;;15.10;61.88;100790.53;6159238;23;970;-84
2021/12/27 07:14:34;;;;;;;;;;;;;;;15.13;61.90;100793.94;6160797;23;1013;-84
2021/12/27 07:17:01;;;;;;;;;;;;;;;15.08;62.33;100771.16;6159903;23;1437;-86
2021/12/27 07:19:28;;;;;;;;;;;;;;;15.05;62.54;100760.72;6162839;23;990;-88
2021/12/27 07:21:55;;;;;;;;;;;;;;;14.99;62.15;100765.63;6163062;23;1172;-82
2021/12/27 07:24:21;;;;;;;;;;;;;;;14.99;63.80;100749.66;6161234;23;1086;-83
2021/12/27 07:26:49;;;;;;;;;;;;;;;14.98;62.05;100764.78;6160855;23;1897;-86
2021/12/27 07:29:16;;;;;;;;;;;;;;;14.97;63.38;100772.88;6161641;23;1535;-86
2021/12/27 07:31:42;;;;;;;;;;;;;;;14.97;63.69;100776.38;6162582;23;1086;-86
2021/12/27 07:34:09;;;;;;;;;;;;;;;14.99;61.79;100768.28;6160767;23;978;-85
2021/12/27 07:36:35;;;;;;;;;;;;;;;15.01;62.87;100747.72;6162585;23;1006;-83
2021/12/27 07:39:02;;;;;;;;;;;;;;;15.03;62.53;100757.31;6161144;23;1010;-87
2021/12/27 07:41:28;;;;;;;;;;;;;;;15.00;63.44;100744.22;6161040;23;998;-82
2021/12/27 07:43:56;;;;;;;;;;;;;;;15.06;62.65;100757.09;6161200;23;1078;-83
2021/12/27 07:46:23;;;;;;;;;;;;;;;15.08;61.83;100764.97;6160732;23;1939;-86
2021/12/27 07:48:49;;;;;;;;;;;;;;;15.05;63.08;100766.03;6161419;23;1018;-86
2021/12/27 07:51:16;;;;;;;;;;;;;;;15.01;62.59;100791.19;6162178;23;1462;-82
2021/12/27 07:53:42;;;;;;;;;;;;;;;14.97;62.54;100778.22;6160749;23;1058;-86
2021/12/27 07:56:09;;;;;;;;;;;;;;;14.94;63.56;100767.75;6162491;23;1575;-83
2021/12/27 07:58:36;;;;;;;;;;;;;;;14.91;62.65;100768.84;6162287;23;963;-86
2021/12/27 08:01:04;;;;;;;;;;;;;;;14.90;63.64;100764.47;6161583;23;1062;-83
2021/12/27 08:03:31;;;;;;;;;;;;;;;14.92;62.15;100770.53;6160271;23;1443;-86
2021/12/27 08:05:57;;;;;;;;;;;;;;;14.89;63.39;100755.63;6161147;23;1461;-83
2021/12/27 08:08:24;;;;;;;;;;;;;;;14.90;62.04;100773.31;6162051;23;1897;-86
2021/12/27 08:10:50;;;;;;;;;;;;;;;14.89;63.11;100771.59;6161965;23;1007;-83
2021/12/27 08:13:17;;;;;;;;;;;;;;;14.93;62.75;100785.56;6161045;23;1575;-83
2021/12/27 08:15:43;;;;;;;;;;;;;;;14.90;62.56;100783.97;6182697;23;986;-82
2021/12/27 08:18:11;;;;;;;;;;;;;;;14.91;61.95;100784.81;6161160;23;1108;-86
2021/12/27 08:20:44;;;;;;;;;;;;;;;14.95;62.63;100780.13;6161832;23;1039;-83
2021/12/27 08:23:10;;;;;;;;;;;;;;;14.98;62.34;100788.75;6160949;23;987;-86
2021/12/27 08:25:37;;;;;;;;;;;;;;;14.95;63.29;100785.44;6161812;23;1006;-85
2021/12/27 08:28:03;;;;;;;;;;;;;;;14.95;62.37;100770.31;6160792;23;1938;-86
2021/12/27 08:30:31;;;;;;;;;;;;;;;14.96;62.24;100768.50;6159714;23;1015;-82
2021/12/27 08:32:59;;;;;;;;;;;;;;;14.94;62.22;100768.63;6160683;23;1011;-83
2021/12/27 08:35:27;;;;;;;;;;;;;;;14.95;61.67;100758.81;6161561;23;1019;-86
2021/12/27 08:37:54;;;;;;;;;;;;;;;14.92;63.41;100746.56;6161854;23;994;-86
2021/12/27 08:40:21;;;;;;;;;;;;;;;14.93;63.28;100737.63;6161096;23;1576;-86
2021/12/27 08:42:48;;;;;;;;;;;;;;;14.89;63.57;100726.34;6160970;23;974;-86
2021/12/27 08:45:14;;;;;;;;;;;;;;;14.87;62.31;100743.38;6160770;23;998;-82
2021/12/27 08:47:41;;;;;;;;;;;;;;;14.86;63.21;100739.00;6160951;23;1900;-86
2021/12/27 08:50:09;;;;;;;;;;;;;;;14.82;62.79;100737.53;6161618;23;1006;-86
2021/12/27 08:52:37;;;;;;;;;;;;;;;14.85;62.93;100732.00;6161327;23;1030;-86
2021/12/27 08:55:04;;;;;;;;;;;;;;;14.82;61.99;100732.19;6160792;23;1026;-82
2021/12/27 08:57:30;;;;;;;;;;;;;;;14.85;62.45;100732.00;6159823;23;1450;-86
2021/12/27 08:59:57;;;;;;;;;;;;;;;14.91;63.24;100732.41;6160476;23;1442;-83
2021/12/27 09:02:23;;;;;;;;;;;;;;;14.87;62.97;100720.28;6160412;23;1469;-84
2021/12/27 09:04:50;;;;;;;;;;;;;;;14.85;61.88;100708.03;6161045;23;963;-86
2021/12/27 09:07:16;;;;;;;;;;;;;;;14.90;62.61;100700.56;6160931;23;1901;-85
2021/12/27 09:09:44;;;;;;;;;;;;;;;14.87;61.95;100690.97;6161315;23;1441;-83
2021/12/27 09:12:11;;;;;;;;;;;;;;;14.86;62.72;100675.13;6161911;23;991;-86
2021/12/27 09:14:38;;;;;;;;;;;;;;;14.82;63.43;100658.53;6161402;23;1071;-88
2021/12/27 09:17:04;;;;;;;;;;;;;;;14.80;63.70;100667.56;6161672;23;1019;-83
2021/12/27 09:19:31;;;;;;;;;;;;;;;14.80;63.30;100662.25;6160796;23;974;-83
2021/12/27 09:21:58;;;;;;;;;;;;;;;14.79;62.30;100649.91;6160156;23;1562;-86
2021/12/27 09:24:24;;;;;;;;;;;;;;;14.80;62.33;100678.22;6160884;23;1051;-87
2021/12/27 09:26:52;;;;;;;;;;;;;;;14.82;61.84;100676.28;6160362;23;1905;-86
2021/12/27 09:29:19;;;;;;;;;;;;;;;14.77;62.15;100644.69;6161109;23;994;-83
2021/12/27 09:31:46;;;;;;;;;;;;;;;14.80;62.23;100660.47;6160927;23;967;-86
2021/12/27 09:34:12;;;;;;;;;;;;;;;14.82;61.74;100645.22;6160261;23;991;-87
2021/12/27 09:36:39;;;;;;;;;;;;;;;14.84;63.39;100659.28;6160203;23;991;-86
2021/12/27 09:39:06;;;;;;;;;;;;;;;14.82;62.83;100700.25;6161375;23;1003;-82
2021/12/27 09:41:32;;;;;;;;;;;;;;;14.87;63.29;100708.78;6160388;23;1058;-82
2021/12/27 09:44:00;;;;;;;;;;;;;;;14.85;62.36;100708.03;6160410;23;927;-82
2021/12/27 09:46:27;;;;;;;;;;;;;;;14.86;61.97;100691.09;6161050;23;987;-83
2021/12/27 09:48:54;;;;;;;;;;;;;;;14.79;63.62;100684.53;6160477;23;1942;-83
2021/12/27 09:51:21;;;;;;;;;;;;;;;14.84;62.17;100698.34;6160465;23;995;-83
2021/12/27 09:53:48;;;;;;;;;;;;;;;14.81;63.16;100688.78;6159667;23;978;-85
2021/12/27 09:56:16;;;;;;;;;;;;;;;14.79;63.25;100700.50;6160505;23;982;-86
2021/12/27 09:58:42;;;;;;;;;;;;;;;14.78;63.32;100683.69;6159580;23;1011;-84
2021/12/27 10:01:10;;;;;;;;;;;;;;;14.76;62.84;100679.41;6160362;23;1026;-86
2021/12/27 10:03:45;;;;;;;;;;;;;;;14.74;61.83;100665.34;6159176;23;1458;-86
2021/12/27 10:06:12;;;;;;;;;;;;;;;14.75;63.52;100649.28;6161483;23;1590;-82
2021/12/27 10:08:39;;;;;;;;;;;;;;;14.77;63.50;100638.53;6159850;23;1897;-86
2021/12/27 10:11:07;;;;;;;;;;;;;;;14.80;62.32;100647.16;6160650;23;1041;-86
2021/12/27 10:13:35;;;;;;;;;;;;;;;14.86;61.91;100656.47;6169447;23;978;-85
2021/12/27 10:16:15;;;;;;;;;;;;;;;14.80;62.36;100648.94;6176192;23;1111;-86
2021/12/27 10:18:42;;;;;;;;;;;;;;;14.79;63.14;100633.94;6159487;23;1099;-83
2021/12/27 10:21:14;;;;;;;;;;;;;;;14.83;63.27;100617.63;6161108;23;1097;-86
2021/12/27 10:23:50;;;;;;;;;;;;;;;14.78;62.55;100622.47;6160373;23;1065;-86
2021/12/27 10:26:17;;;;;;;;;;;;;;;14.75;63.22;100627.16;6159532;23;1018;-86
2021/12/27 10:28:44;;;;;;;;;;;;;;;14.76;62.30;100631.50;6159462;23;1896;-86
2021/12/27 10:31:10;;;;;;;;;;;;;;;14.74;62.68;100622.78;6160339;23;1013;-86
2021/12/27 10:33:50;;;;;;;;;;;;;;;14.74;62.89;100612.97;6160396;23;1667;-88
2021/12/27 10:36:16;;;;;;;;;;;;;;;14.75;62.83;100612.00;6159468;23;967;-83
2021/12/27 10:41:46;;;;;;;;;;;;;;;14.73;63.49;100589.16;6159988;23;590;-82
2021/12/27 10:44:14;;;;;;;;;;;;;;;14.76;62.86;100594.22;6159404;23;978;-86
2021/12/27 10:46:40;;;;;;;;;;;;;;;14.76;62.14;100615.53;6160403;23;991;-86
2021/12/27 10:49:22;;;;;;;;;;;;;;;14.83;62.87;100628.28;6159575;23;1893;-85
2021/12/27 10:52:25;;;;;;;;;;;;;;;14.79;62.60;100631.28;6163655;23;966;-87
2021/12/27 10:54:59;;;;;;;;;;;;;;;14.75;62.12;100648.44;6164913;23;1033;-85
2021/12/27 10:58:02;;;;;;;;;;;;;;;14.73;62.91;100637.06;6163534;23;1048;-83
2021/12/27 11:00:58;;;;;;;;;;;;;;;14.74;63.08;100644.91;6163313;23;1009;-88
2021/12/27 11:03:38;;;;;;;;;;;;;;;14.73;61.58;100637.91;6161249;23;1364;-82
2021/12/27 11:06:07;;;;;;;;;;;;;;;14.71;62.69;100635.34;6164964;23;1051;-85
2021/12/27 11:08:35;;;;;;;;;;;;;;;14.74;62.36;100636.06;6164163;23;1918;-83
2021/12/27 11:11:02;;;;;;;;;;;;;;;14.69;62.91;100621.28;6162494;23;1056;-87
2021/12/27 11:13:29;;;;;;;;;;;;;;;14.69;62.40;100626.63;6162085;23;1434;-87
2021/12/27 11:15:56;;;;;;;;;;;;;;;14.70;63.61;100616.81;6162356;23;979;-87
2021/12/27 11:18:22;;;;;;;;;;;;;;;14.66;63.43;100612.66;6162708;23;1501;-83
2021/12/27 11:20:51;;;;;;;;;;;;;;;14.64;63.40;100636.75;6164062;23;1002;-84
2021/12/27 11:23:21;;;;;;;;;;;;;;;14.63;63.36;100653.66;6163807;23;1018;-86
2021/12/27 11:25:49;;;;;;;;;;;;;;;14.65;63.06;100653.56;6162029;23;1018;-88
2021/12/27 11:28:33;;;;;;;;;;;;;;;14.67;63.82;100644.50;6163623;23;1959;-86
2021/12/27 11:31:00;;;;;;;;;;;;;;;14.69;63.37;100655.06;6162732;23;1135;-83
2021/12/27 11:33:27;;;;;;;;;;;;;;;14.69;63.63;100658.56;6163889;23;966;-84
2021/12/27 11:36:05;;;;;;;;;;;;;;;14.71;63.69;100667.28;6160762;23;998;-83
2021/12/27 11:38:34;;;;;;;;;;;;;;;14.68;62.79;100656.00;6161273;23;1091;-87
2021/12/27 11:41:01;;;;;;;;;;;;;;;14.67;62.58;100646.31;6161136;23;1003;-84
2021/12/27 11:43:42;;;;;;;;;;;;;;;14.70;63.57;100648.75;6164143;23;1051;-83
2021/12/27 11:46:09;;;;;;;;;;;;;;;14.66;63.81;100621.53;6161640;23;1252;-87
2021/12/27 11:48:43;;;;;;;;;;;;;;;14.63;62.91;100611.09;6162237;23;1901;-86
2021/12/27 11:51:10;;;;;;;;;;;;;;;14.64;63.10;100601.28;6162113;23;1022;-87
2021/12/27 11:53:47;;;;;;;;;;;;;;;14.64;63.19;100591.53;6162566;23;987;-83
2021/12/27 11:56:17;;;;;;;;;;;;;;;14.62;62.98;100584.59;6162761;23;1100;-84
2021/12/27 11:58:45;;;;;;;;;;;;;;;14.61;63.72;100591.72;6163148;23;919;-83
2021/12/27 12:01:27;;;;;;;;;;;;;;;14.60;62.89;100579.38;6160460;23;1166;-85
2021/12/27 12:03:54;;;;;;;;;;;;;;;14.56;63.06;100580.56;6136543;23;1492;-88
2021/12/27 12:06:37;;;;;;;;;;;;;;;14.61;63.78;100566.94;6162149;23;1051;-83
2021/12/27 12:09:09;;;;;;;;;;;;;;;14.56;63.78;100567.25;6161720;23;1889;-83
2021/12/27 12:11:36;;;;;;;;;;;;;;;14.55;63.42;100581.50;6186548;23;1015;-86
2021/12/27 12:14:21;;;;;;;;;;;;;;;14.57;62.24;100554.81;6163830;23;1081;-84
2021/12/27 12:16:49;;;;;;;;;;;;;;;14.56;63.85;100569.91;6163818;23;1046;-85
2021/12/27 12:19:16;;;;;;;;;;;;;;;14.62;62.76;100552.66;6164839;23;1386;-86
2021/12/27 12:21:44;;;;;;;;;;;;;;;14.61;62.96;100551.81;6165348;23;1657;-86
2021/12/27 12:24:22;;;;;;;;;;;;;;;14.58;63.79;100554.69;6164739;23;1522;-83
2021/12/27 12:26:49;;;;;;;;;;;;;;;14.57;62.97;100560.97;6164343;23;942;-85
2021/12/27 12:29:16;;;;;;;;;;;;;;;14.57;63.22;100541.50;6160514;23;2032;-85
2021/12/27 12:31:42;;;;;;;;;;;;;;;14.61;62.93;100537.66;6164843;23;1062;-85
2021/12/27 12:34:10;;;;;;;;;;;;;;;14.60;63.00;100526.13;6160237;23;986;-84
2021/12/27 12:36:45;;;;;;;;;;;;;;;14.58;63.53;100514.75;6162640;23;1641;-87
2021/12/27 12:39:12;;;;;;;;;;;;;;;14.58;63.58;100521.91;6164448;23;994;-86
2021/12/27 12:41:41;;;;;;;;;;;;;;;14.55;63.64;100509.66;6162399;23;1022;-86
2021/12/27 12:44:08;;;;;;;;;;;;;;;14.57;63.75;100493.63;6162018;23;1011;-87
2021/12/27 12:46:38;;;;;;;;;;;;;;;14.58;63.17;100496.13;6163174;23;1477;-83
2021/12/27 12:49:06;;;;;;;;;;;;;;;14.56;63.33;100513.16;6162690;23;1897;-83
2021/12/27 12:51:34;;;;;;;;;;;;;;;14.53;62.89;100514.22;6164181;23;1437;-85
2021/12/27 12:54:01;;;;;;;;;;;;;;;14.51;62.44;100526.81;6163260;23;1013;-84
2021/12/27 12:56:29;;;;;;;;;;;;;;;14.54;62.76;100526.56;6161871;23;1073;-87
2021/12/27 12:58:59;;;;;;;;;;;;;;;14.58;63.59;100522.75;6163960;23;987;-87
2021/12/27 13:01:26;;;;;;;;;;;;;;;14.56;63.82;100530.00;6161419;23;1334;-83